Time;durP1;ratioP1;P1;durP2;ratioP2;P2;SDS_P1;SDS_P2;PMS_P1;PMS_P2;Temp;Humidity;BMP_temperature;BMP_pressure;BME280_temperature;BME280_humidity;BME280_pressure;Samples;Min_cycle;Max_cycle;Signal;HPM_P1;HPM_P2
2022/12/28 00:02:17;;;;;;;;;;;20.80;39.30;;;;;;8331168;28;20003;-43
2022/12/28 00:06:18;;;;;;;;;;;20.80;39.30;;;;;;8335716;28;20404;-43
2022/12/28 00:10:19;;;;;;;;;;;20.80;39.40;;;;;;8335380;28;20353;-43
2022/12/28 00:14:19;;;;;;;;;;;20.80;39.40;;;;;;8335539;28;19917;-43
2022/12/28 00:18:20;;;;;;;;;;;20.80;39.40;;;;;;8335679;28;19917;-43
2022/12/28 00:22:20;;;;;;;;;;;20.80;39.40;;;;;;8334930;28;19913;-43
2022/12/28 00:26:21;;;;;;;;;;;20.70;39.40;;;;;;8335231;28;20000;-43
2022/12/28 00:30:21;;;;;;;;;;;20.70;39.30;;;;;;8334823;28;19939;-43
2022/12/28 00:34:22;;;;;;;;;;;20.70;39.50;;;;;;8334701;28;19924;-42
2022/12/28 00:38:22;;;;;;;;;;;20.70;40.00;;;;;;8334946;28;20438;-43
2022/12/28 00:42:23;;;;;;;;;;;20.70;39.40;;;;;;8334504;28;20383;-43
2022/12/28 00:46:23;;;;;;;;;;;20.60;39.40;;;;;;8334124;28;20405;-43
2022/12/28 00:50:24;;;;;;;;;;;20.60;39.40;;;;;;8334382;28;19914;-43
2022/12/28 00:54:24;;;;;;;;;;;20.60;39.50;;;;;;8334533;28;19921;-42
2022/12/28 00:58:25;;;;;;;;;;;20.60;39.50;;;;;;8333860;28;19924;-43
2022/12/28 01:02:25;;;;;;;;;;;20.60;39.50;;;;;;8334463;28;19917;-43
2022/12/28 01:06:28;;;;;;;;;;;20.60;39.50;;;;;;8333859;28;19921;-43
2022/12/28 01:10:28;;;;;;;;;;;20.50;39.40;;;;;;8333610;28;19918;-43
2022/12/28 01:14:29;;;;;;;;;;;20.50;39.50;;;;;;8332840;28;19991;-43
2022/12/28 01:18:29;;;;;;;;;;;20.50;39.50;;;;;;8333914;28;19921;-43
2022/12/28 01:22:30;;;;;;;;;;;20.50;39.40;;;;;;8333156;28;20359;-43
2022/12/28 01:26:30;;;;;;;;;;;20.50;39.50;;;;;;8333601;28;19983;-43
2022/12/28 01:30:30;;;;;;;;;;;20.40;39.50;;;;;;8333464;28;20371;-44
2022/12/28 01:34:31;;;;;;;;;;;20.40;39.50;;;;;;8332895;28;20370;-44
2022/12/28 01:38:31;;;;;;;;;;;20.40;39.60;;;;;;8333387;28;19924;-44
2022/12/28 01:42:32;;;;;;;;;;;20.40;39.60;;;;;;8332809;28;19913;-44
2022/12/28 01:46:41;;;;;;;;;;;20.40;39.60;;;;;;8332304;28;19947;-43
2022/12/28 01:50:41;;;;;;;;;;;20.40;39.60;;;;;;8333189;28;19918;-43
2022/12/28 01:54:44;;;;;;;;;;;20.40;39.60;;;;;;8332795;28;20008;-44
2022/12/28 01:58:45;;;;;;;;;;;20.30;39.60;;;;;;8331972;28;19979;-43
2022/12/28 02:02:48;;;;;;;;;;;20.30;39.60;;;;;;8332056;28;20370;-44
2022/12/28 02:06:49;;;;;;;;;;;20.30;39.60;;;;;;8332098;28;20408;-43
2022/12/28 02:10:50;;;;;;;;;;;20.30;39.60;;;;;;8331712;28;19914;-43
2022/12/28 02:14:51;;;;;;;;;;;20.30;39.60;;;;;;8331533;28;20011;-43
2022/12/28 02:18:51;;;;;;;;;;;20.20;39.60;;;;;;8331810;28;19924;-43
2022/12/28 02:23:01;;;;;;;;;;;20.20;39.60;;;;;;8331273;28;19991;-43
2022/12/28 02:27:20;;;;;;;;;;;20.20;39.60;;;;;;8331349;28;20386;-43
2022/12/28 02:31:27;;;;;;;;;;;20.20;39.60;;;;;;8331186;28;20405;-43
2022/12/28 02:35:30;;;;;;;;;;;20.20;39.60;;;;;;8331694;28;19956;-43
2022/12/28 02:39:35;;;;;;;;;;;20.20;39.60;;;;;;8331124;28;19924;-43
2022/12/28 02:43:35;;;;;;;;;;;20.20;39.60;;;;;;8330654;28;19917;-43
2022/12/28 02:52:01;;;;;;;;;;;20.10;39.60;;;;;;8334918;28;19974;-43
2022/12/28 02:56:19;;;;;;;;;;;20.10;39.60;;;;;;8330526;28;19920;-43
2022/12/28 03:00:22;;;;;;;;;;;20.10;39.70;;;;;;8330980;28;19924;-43
2022/12/28 03:04:23;;;;;;;;;;;20.10;39.70;;;;;;8330061;28;19929;-43
2022/12/28 03:08:30;;;;;;;;;;;20.10;39.70;;;;;;8330598;28;19928;-44
2022/12/28 03:12:35;;;;;;;;;;;20.10;39.60;;;;;;8330673;28;19971;-43
2022/12/28 03:25:41;;;;;;;;;;;20.00;39.60;;;;;;8329764;28;19971;-44
2022/12/28 03:34:05;;;;;;;;;;;19.90;39.60;;;;;;8331048;28;19979;-43
2022/12/28 03:38:09;;;;;;;;;;;20.00;39.70;;;;;;8332845;28;19917;-43
2022/12/28 03:46:36;;;;;;;;;;;19.90;39.70;;;;;;8338537;28;19992;-44
2022/12/28 03:50:38;;;;;;;;;;;19.90;39.70;;;;;;8336922;28;19917;-44
2022/12/28 03:54:39;;;;;;;;;;;19.90;39.70;;;;;;8336567;28;19917;-43
2022/12/28 03:58:40;;;;;;;;;;;19.90;39.60;;;;;;8335637;28;19952;-43
2022/12/28 04:02:40;;;;;;;;;;;19.90;39.70;;;;;;8336081;28;19917;-43
2022/12/28 04:06:42;;;;;;;;;;;19.90;39.70;;;;;;8335785;28;19996;-43
2022/12/28 04:10:43;;;;;;;;;;;19.90;39.70;;;;;;8334179;28;19913;-45
2022/12/28 04:14:43;;;;;;;;;;;19.90;39.80;;;;;;8335804;28;19975;-43
2022/12/28 04:18:44;;;;;;;;;;;19.90;39.80;;;;;;8335528;28;20294;-43
2022/12/28 04:22:44;;;;;;;;;;;19.90;39.80;;;;;;8335041;28;19924;-44
2022/12/28 04:26:44;;;;;;;;;;;19.90;39.70;;;;;;8335562;28;19960;-43
2022/12/28 04:30:45;;;;;;;;;;;19.90;39.70;;;;;;8335210;28;19921;-43
2022/12/28 04:34:45;;;;;;;;;;;20.00;40.20;;;;;;8334726;28;19921;-43
2022/12/28 04:38:46;;;;;;;;;;;20.00;39.60;;;;;;8334996;28;19921;-44
2022/12/28 04:42:46;;;;;;;;;;;20.10;39.60;;;;;;8334573;28;19924;-43
2022/12/28 04:46:47;;;;;;;;;;;20.10;39.50;;;;;;8334544;28;20016;-43
2022/12/28 04:50:47;;;;;;;;;;;20.10;39.50;;;;;;8334525;28;19928;-43
2022/12/28 04:54:47;;;;;;;;;;;20.20;39.50;;;;;;8334628;28;20003;-43
2022/12/28 04:58:51;;;;;;;;;;;20.10;39.40;;;;;;8333929;28;19917;-43
2022/12/28 05:02:57;;;;;;;;;;;20.20;39.40;;;;;;8333847;28;21280;-43
2022/12/28 05:06:57;;;;;;;;;;;20.30;39.40;;;;;;8327375;28;19922;-43
2022/12/28 05:10:58;;;;;;;;;;;20.30;39.40;;;;;;8332944;28;19917;-43
2022/12/28 05:14:59;;;;;;;;;;;20.30;39.40;;;;;;8333931;28;19925;-44
2022/12/28 05:18:59;;;;;;;;;;;20.30;39.30;;;;;;8333734;28;20401;-44
2022/12/28 05:22:59;;;;;;;;;;;20.40;39.30;;;;;;8333492;28;20493;-43
2022/12/28 05:27:00;;;;;;;;;;;20.40;39.30;;;;;;8333612;28;19984;-43
2022/12/28 05:31:01;;;;;;;;;;;20.40;39.20;;;;;;8333243;28;19924;-43
2022/12/28 05:35:02;;;;;;;;;;;20.50;39.30;;;;;;8333156;28;20040;-45
2022/12/28 05:39:03;;;;;;;;;;;20.50;39.20;;;;;;8333569;28;19940;-44
2022/12/28 05:43:03;;;;;;;;;;;20.50;39.20;;;;;;8333167;28;19928;-43
2022/12/28 05:47:04;;;;;;;;;;;20.50;39.10;;;;;;8332558;28;19929;-43
2022/12/28 05:51:05;;;;;;;;;;;20.60;39.20;;;;;;8333006;28;19975;-43
2022/12/28 05:55:06;;;;;;;;;;;20.60;39.20;;;;;;8332644;28;20374;-43
2022/12/28 05:59:07;;;;;;;;;;;20.60;39.20;;;;;;8331699;28;19917;-43
2022/12/28 06:03:07;;;;;;;;;;;20.60;39.10;;;;;;8332438;28;19963;-43
2022/12/28 06:07:07;;;;;;;;;;;20.60;39.10;;;;;;8332324;28;20015;-44
2022/12/28 06:11:09;;;;;;;;;;;20.70;39.10;;;;;;8331706;28;19995;-43
2022/12/28 06:15:10;;;;;;;;;;;20.70;39.10;;;;;;8331960;28;19917;-43
2022/12/28 06:19:11;;;;;;;;;;;20.70;39.10;;;;;;8331812;28;19921;-44
2022/12/28 06:23:11;;;;;;;;;;;20.70;39.00;;;;;;8331329;28;19917;-43
2022/12/28 06:27:11;;;;;;;;;;;20.70;39.00;;;;;;8331603;28;19932;-44
2022/12/28 06:31:13;;;;;;;;;;;20.80;39.00;;;;;;8331523;28;20356;-43
2022/12/28 06:35:14;;;;;;;;;;;20.70;39.00;;;;;;8330871;28;19921;-43
2022/12/28 06:39:14;;;;;;;;;;;20.80;39.10;;;;;;8331710;28;19924;-43
2022/12/28 06:43:15;;;;;;;;;;;20.80;39.60;;;;;;8331125;28;19917;-43
2022/12/28 06:47:15;;;;;;;;;;;20.80;39.00;;;;;;8331227;28;19922;-43
2022/12/28 06:51:17;;;;;;;;;;;20.80;38.90;;;;;;8331061;28;19921;-43
2022/12/28 06:55:17;;;;;;;;;;;20.80;38.90;;;;;;8330630;28;19918;-43
2022/12/28 06:59:18;;;;;;;;;;;20.90;38.90;;;;;;8330532;28;20380;-43
2022/12/28 07:03:18;;;;;;;;;;;20.90;39.00;;;;;;8330511;28;20410;-43
2022/12/28 07:07:18;;;;;;;;;;;20.90;38.90;;;;;;8330256;28;19921;-44
2022/12/28 07:11:20;;;;;;;;;;;20.90;38.90;;;;;;8329351;28;19917;-43
2022/12/28 07:15:21;;;;;;;;;;;20.90;38.90;;;;;;8330148;28;20047;-43
2022/12/28 07:19:21;;;;;;;;;;;20.90;38.90;;;;;;8329888;28;19963;-43
2022/12/28 07:23:21;;;;;;;;;;;20.90;38.80;;;;;;8330151;28;20374;-42
2022/12/28 07:27:22;;;;;;;;;;;20.90;38.90;;;;;;8330282;28;19921;-44
2022/12/28 07:31:23;;;;;;;;;;;20.90;38.80;;;;;;8329651;28;19962;-44
2022/12/28 07:35:24;;;;;;;;;;;21.00;38.80;;;;;;8330382;28;19927;-45
2022/12/28 07:39:24;;;;;;;;;;;21.00;38.80;;;;;;8329844;28;20306;-44
2022/12/28 07:43:25;;;;;;;;;;;21.00;38.80;;;;;;8329428;28;20008;-44
2022/12/28 07:47:25;;;;;;;;;;;21.00;38.70;;;;;;8330188;28;19933;-44
2022/12/28 07:51:30;;;;;;;;;;;21.00;38.80;;;;;;8329766;28;19992;-44
2022/12/28 07:55:30;;;;;;;;;;;21.00;38.80;;;;;;8329203;28;20014;-44
2022/12/28 07:59:31;;;;;;;;;;;21.10;38.80;;;;;;8329673;28;19924;-44
2022/12/28 08:03:32;;;;;;;;;;;21.10;38.70;;;;;;8329417;28;19913;-44
2022/12/28 08:07:32;;;;;;;;;;;21.10;38.80;;;;;;8329934;28;20488;-44
2022/12/28 08:11:34;;;;;;;;;;;21.10;38.70;;;;;;8306807;28;20363;-44
2022/12/28 08:15:34;;;;;;;;;;;21.10;38.60;;;;;;8315341;28;19917;-44
2022/12/28 08:19:34;;;;;;;;;;;21.10;38.70;;;;;;8328995;28;19921;-44
2022/12/28 08:23:35;;;;;;;;;;;21.10;38.70;;;;;;8331217;28;19920;-45
2022/12/28 08:27:35;;;;;;;;;;;21.10;38.70;;;;;;8335678;28;19953;-43
2022/12/28 08:31:37;;;;;;;;;;;21.10;38.60;;;;;;8334730;28;19917;-43
2022/12/28 08:35:38;;;;;;;;;;;21.20;38.60;;;;;;8335057;28;19917;-43
2022/12/28 08:39:38;;;;;;;;;;;21.20;38.60;;;;;;8334836;28;20286;-43
2022/12/28 08:43:39;;;;;;;;;;;21.20;38.60;;;;;;8334327;28;20362;-43
2022/12/28 08:47:39;;;;;;;;;;;21.20;38.60;;;;;;8334779;28;19976;-44
2022/12/28 08:51:40;;;;;;;;;;;21.20;38.60;;;;;;8334733;28;19921;-43
2022/12/28 08:55:40;;;;;;;;;;;21.20;38.60;;;;;;8334106;28;20379;-44
2022/12/28 08:59:41;;;;;;;;;;;21.30;38.60;;;;;;8334261;28;19925;-44
2022/12/28 09:03:43;;;;;;;;;;;21.30;38.60;;;;;;8334235;28;19939;-43
2022/12/28 09:07:43;;;;;;;;;;;21.30;38.60;;;;;;8333787;28;19928;-44
2022/12/28 09:11:44;;;;;;;;;;;21.30;38.60;;;;;;8333866;28;19921;-45
2022/12/28 09:15:54;;;;;;;;;;;21.30;38.60;;;;;;8333919;28;19917;-44
2022/12/28 09:19:54;;;;;;;;;;;21.30;38.60;;;;;;8333418;28;19930;-44
2022/12/28 09:23:55;;;;;;;;;;;21.30;38.60;;;;;;8333594;28;20004;-43
2022/12/28 09:27:56;;;;;;;;;;;21.30;38.50;;;;;;8333654;28;20428;-44
2022/12/28 09:31:56;;;;;;;;;;;21.30;38.60;;;;;;8332902;28;19918;-43
2022/12/28 09:35:58;;;;;;;;;;;21.30;39.00;;;;;;8332562;28;19951;-43
2022/12/28 09:39:58;;;;;;;;;;;21.30;38.50;;;;;;8333230;28;20003;-43
2022/12/28 09:44:11;;;;;;;;;;;21.40;38.60;;;;;;8332487;28;19913;-44
2022/12/28 09:48:13;;;;;;;;;;;21.40;38.60;;;;;;8333132;28;19921;-44
2022/12/28 09:52:13;;;;;;;;;;;21.40;38.50;;;;;;8332764;28;20338;-44
2022/12/28 09:56:23;;;;;;;;;;;21.40;38.60;;;;;;8332063;28;19967;-43
2022/12/28 10:00:37;;;;;;;;;;;21.40;38.50;;;;;;8332454;28;20397;-43
2022/12/28 10:04:37;;;;;;;;;;;21.50;38.60;;;;;;8331900;28;19991;-43
2022/12/28 10:08:39;;;;;;;;;;;21.40;38.50;;;;;;8332395;28;19913;-43
2022/12/28 10:12:42;;;;;;;;;;;21.40;38.40;;;;;;8331971;28;19917;-43
2022/12/28 10:16:43;;;;;;;;;;;21.50;38.50;;;;;;8331528;28;19924;-43
2022/12/28 10:20:43;;;;;;;;;;;21.50;38.50;;;;;;8331822;28;19956;-43
2022/12/28 10:24:44;;;;;;;;;;;21.50;38.50;;;;;;8331775;28;19929;-43
2022/12/28 10:28:50;;;;;;;;;;;21.50;38.50;;;;;;8331313;28;19921;-42
2022/12/28 10:32:52;;;;;;;;;;;21.50;38.50;;;;;;8331759;28;19932;-43
2022/12/28 10:36:53;;;;;;;;;;;21.50;38.50;;;;;;8331309;28;19917;-43
2022/12/28 10:40:56;;;;;;;;;;;21.50;38.50;;;;;;8330668;28;19928;-43
2022/12/28 10:45:00;;;;;;;;;;;21.50;38.50;;;;;;8330990;28;19925;-42
2022/12/28 10:49:02;;;;;;;;;;;21.50;38.50;;;;;;8330947;28;20004;-42
2022/12/28 10:53:02;;;;;;;;;;;21.60;38.50;;;;;;8330797;28;19921;-43
2022/12/28 10:57:03;;;;;;;;;;;21.60;38.50;;;;;;8330592;28;19939;-42
2022/12/28 11:01:05;;;;;;;;;;;21.60;38.50;;;;;;8330596;28;19920;-42
2022/12/28 11:05:06;;;;;;;;;;;21.60;38.50;;;;;;8330151;28;19925;-43
2022/12/28 11:09:18;;;;;;;;;;;21.60;38.50;;;;;;8330112;28;19913;-42
2022/12/28 11:13:19;;;;;;;;;;;21.70;38.50;;;;;;8330086;28;20366;-42
2022/12/28 11:17:23;;;;;;;;;;;21.60;38.50;;;;;;8330798;28;19923;-42
2022/12/28 11:21:24;;;;;;;;;;;21.70;38.50;;;;;;8330832;28;19913;-42
2022/12/28 11:25:30;;;;;;;;;;;21.70;38.50;;;;;;8330697;28;19936;-42
2022/12/28 11:29:31;;;;;;;;;;;21.70;38.50;;;;;;8331805;28;19922;-43
2022/12/28 11:33:37;;;;;;;;;;;21.70;38.50;;;;;;8331008;28;20005;-42
2022/12/28 11:37:46;;;;;;;;;;;21.70;38.40;;;;;;8330457;28;20362;-44
2022/12/28 11:41:49;;;;;;;;;;;21.70;38.40;;;;;;8330709;28;19921;-44
2022/12/28 11:45:51;;;;;;;;;;;21.80;38.40;;;;;;8330505;28;20386;-44
2022/12/28 11:49:52;;;;;;;;;;;21.80;38.40;;;;;;8330063;28;19917;-44
2022/12/28 11:53:57;;;;;;;;;;;21.80;38.50;;;;;;8330694;28;19921;-43
2022/12/28 11:58:18;;;;;;;;;;;21.80;38.50;;;;;;8331030;28;20396;-44
2022/12/28 12:02:18;;;;;;;;;;;21.80;38.50;;;;;;8335981;28;20004;-43
2022/12/28 12:06:19;;;;;;;;;;;21.80;38.40;;;;;;8336240;28;19975;-43
2022/12/28 12:10:25;;;;;;;;;;;21.80;38.50;;;;;;8335468;28;19939;-43
2022/12/28 12:14:35;;;;;;;;;;;21.80;38.40;;;;;;8335982;28;19967;-44
2022/12/28 12:18:44;;;;;;;;;;;21.80;38.40;;;;;;8335863;28;19921;-45
2022/12/28 12:22:50;;;;;;;;;;;21.80;38.40;;;;;;8334862;28;19924;-45
2022/12/28 12:26:54;;;;;;;;;;;21.90;38.40;;;;;;8335360;28;20379;-43
2022/12/28 12:30:54;;;;;;;;;;;21.90;38.40;;;;;;8335209;28;19917;-42
2022/12/28 12:34:59;;;;;;;;;;;21.90;38.50;;;;;;8334845;28;19959;-43
2022/12/28 12:39:07;;;;;;;;;;;21.90;38.40;;;;;;8334922;28;19971;-43
2022/12/28 12:43:07;;;;;;;;;;;21.90;38.40;;;;;;8334798;28;20346;-43
2022/12/28 12:47:21;;;;;;;;;;;21.90;38.40;;;;;;8334058;28;20015;-43
2022/12/28 12:51:25;;;;;;;;;;;21.90;38.40;;;;;;8334509;28;19921;-43
2022/12/28 12:55:34;;;;;;;;;;;21.90;38.30;;;;;;8333766;28;19944;-44
2022/12/28 12:59:41;;;;;;;;;;;22.00;38.40;;;;;;8334654;28;19923;-44
2022/12/28 13:03:45;;;;;;;;;;;21.90;38.30;;;;;;8334278;28;19944;-44
2022/12/28 13:07:47;;;;;;;;;;;22.00;38.30;;;;;;8333522;28;20083;-44
2022/12/28 13:11:47;;;;;;;;;;;22.00;38.40;;;;;;8333050;28;20338;-43
2022/12/28 13:15:48;;;;;;;;;;;22.00;38.30;;;;;;8333725;28;20054;-44
2022/12/28 13:19:48;;;;;;;;;;;22.00;38.30;;;;;;8333559;28;19914;-43
2022/12/28 13:23:49;;;;;;;;;;;22.00;38.40;;;;;;8333493;28;19928;-43
2022/12/28 13:27:50;;;;;;;;;;;22.00;38.30;;;;;;8333455;28;19932;-42
2022/12/28 13:31:51;;;;;;;;;;;22.00;38.30;;;;;;8333000;28;20349;-43
2022/12/28 13:36:03;;;;;;;;;;;22.00;38.30;;;;;;8333682;28;19921;-43
2022/12/28 13:40:10;;;;;;;;;;;22.00;38.30;;;;;;8333419;28;19913;-46
2022/12/28 13:44:14;;;;;;;;;;;22.00;38.30;;;;;;8332460;28;19917;-45
2022/12/28 13:48:14;;;;;;;;;;;22.00;38.30;;;;;;8332695;28;19929;-43
2022/12/28 13:52:18;;;;;;;;;;;22.00;38.30;;;;;;8332910;28;20349;-46
2022/12/28 13:56:20;;;;;;;;;;;22.00;38.30;;;;;;8332767;28;19924;-43
2022/12/28 14:00:21;;;;;;;;;;;22.00;38.30;;;;;;8332522;28;19913;-44
2022/12/28 14:04:23;;;;;;;;;;;22.00;38.30;;;;;;8331922;28;20298;-45
2022/12/28 14:08:24;;;;;;;;;;;22.00;38.30;;;;;;8332449;28;20443;-42
2022/12/28 14:12:25;;;;;;;;;;;22.00;38.30;;;;;;8315876;28;20282;-44
2022/12/28 14:16:26;;;;;;;;;;;22.00;38.20;;;;;;8331493;28;20008;-43
2022/12/28 14:20:26;;;;;;;;;;;22.00;38.30;;;;;;8331590;28;20305;-42
2022/12/28 14:24:27;;;;;;;;;;;22.00;38.30;;;;;;8331529;28;20426;-44
2022/12/28 14:28:30;;;;;;;;;;;22.10;38.20;;;;;;8331098;28;19921;-44
2022/12/28 14:32:32;;;;;;;;;;;22.10;38.30;;;;;;8331672;28;19917;-43
2022/12/28 14:36:35;;;;;;;;;;;22.10;38.30;;;;;;8331265;28;19917;-42
2022/12/28 14:40:36;;;;;;;;;;;22.00;38.30;;;;;;8331005;28;19913;-43
2022/12/28 14:44:38;;;;;;;;;;;22.00;38.30;;;;;;8329266;28;19917;-43
2022/12/28 14:48:39;;;;;;;;;;;22.00;38.30;;;;;;8316904;28;20337;-43
2022/12/28 14:52:44;;;;;;;;;;;22.00;38.30;;;;;;8314535;28;19976;-43
2022/12/28 14:56:47;;;;;;;;;;;22.00;38.60;;;;;;8330690;28;19913;-43
2022/12/28 15:00:58;;;;;;;;;;;22.00;38.50;;;;;;8322554;28;19967;-41
2022/12/28 15:04:59;;;;;;;;;;;22.00;38.70;;;;;;8312486;28;19926;-44
2022/12/28 15:09:03;;;;;;;;;;;22.10;38.90;;;;;;8324338;28;19917;-42
2022/12/28 15:13:04;;;;;;;;;;;22.10;38.90;;;;;;8322241;28;19913;-44
2022/12/28 15:17:04;;;;;;;;;;;22.10;39.10;;;;;;8323065;28;20062;-43
2022/12/28 15:21:05;;;;;;;;;;;22.10;39.10;;;;;;8311165;28;19928;-43
2022/12/28 15:25:05;;;;;;;;;;;22.10;39.00;;;;;;8328467;28;20167;-43
2022/12/28 15:29:06;;;;;;;;;;;22.10;39.20;;;;;;8329048;28;19917;-43
2022/12/28 15:33:07;;;;;;;;;;;22.10;38.90;;;;;;8328759;28;19918;-43
2022/12/28 15:37:07;;;;;;;;;;;22.20;38.90;;;;;;8326730;28;19913;-43
2022/12/28 15:41:45;;;;;;;;;;;22.20;38.80;;;;;;8329172;28;19925;-42
2022/12/28 15:45:28;;;;;;;;;;;22.30;38.70;;;;;;8329573;28;19956;-43
2022/12/28 15:49:29;;;;;;;;;;;22.30;38.70;;;;;;8328147;28;20362;-43
2022/12/28 15:53:29;;;;;;;;;;;22.30;38.60;;;;;;8327352;28;20290;-45
2022/12/28 15:57:30;;;;;;;;;;;22.30;38.60;;;;;;8328364;28;20259;-44
2022/12/28 16:01:30;;;;;;;;;;;22.30;38.60;;;;;;8327488;28;20002;-42
2022/12/28 16:05:31;;;;;;;;;;;22.40;38.60;;;;;;8329702;28;19958;-43
2022/12/28 16:09:31;;;;;;;;;;;22.40;38.50;;;;;;8329056;28;19924;-45
2022/12/28 16:13:32;;;;;;;;;;;22.40;38.50;;;;;;8327674;28;19921;-45
2022/12/28 16:17:32;;;;;;;;;;;22.40;38.40;;;;;;8329017;28;19913;-41
2022/12/28 16:21:33;;;;;;;;;;;22.40;38.40;;;;;;8322675;28;19925;-43
2022/12/28 16:25:33;;;;;;;;;;;22.40;38.40;;;;;;8314101;28;19971;-45
2022/12/28 16:29:34;;;;;;;;;;;22.40;38.50;;;;;;8327918;28;20097;-45
2022/12/28 16:33:36;;;;;;;;;;;22.40;38.50;;;;;;8328911;28;20020;-45
2022/12/28 16:37:36;;;;;;;;;;;22.40;38.50;;;;;;8328320;28;19917;-44
2022/12/28 16:41:37;;;;;;;;;;;22.40;38.40;;;;;;8329110;28;19924;-43
2022/12/28 16:45:38;;;;;;;;;;;22.40;38.40;;;;;;8331136;28;19964;-44
2022/12/28 16:49:39;;;;;;;;;;;22.40;38.30;;;;;;8334248;28;19917;-43
2022/12/28 16:53:40;;;;;;;;;;;22.50;38.30;;;;;;8334568;28;20051;-43
2022/12/28 16:57:40;;;;;;;;;;;22.50;38.30;;;;;;8330424;28;19914;-42
2022/12/28 17:01:41;;;;;;;;;;;22.50;38.30;;;;;;8319411;28;19917;-43
2022/12/28 17:05:42;;;;;;;;;;;22.50;38.30;;;;;;8332886;28;20004;-42
2022/12/28 17:09:43;;;;;;;;;;;22.50;38.30;;;;;;8326491;28;19917;-42
2022/12/28 17:13:44;;;;;;;;;;;22.50;38.30;;;;;;8320208;28;19924;-42
2022/12/28 17:17:44;;;;;;;;;;;22.50;38.30;;;;;;8324876;28;19924;-44
2022/12/28 17:21:44;;;;;;;;;;;22.50;38.60;;;;;;8321492;28;20294;-44
2022/12/28 17:25:48;;;;;;;;;;;22.50;38.60;;;;;;8329309;28;19948;-43
2022/12/28 17:29:48;;;;;;;;;;;22.40;38.70;;;;;;8311123;28;20012;-45
2022/12/28 17:33:53;;;;;;;;;;;22.40;38.60;;;;;;8313892;28;20329;-43
2022/12/28 17:37:53;;;;;;;;;;;22.40;38.70;;;;;;8330506;28;19917;-42
2022/12/28 17:41:54;;;;;;;;;;;22.40;38.50;;;;;;8332359;28;20376;-42
2022/12/28 17:45:54;;;;;;;;;;;22.50;38.50;;;;;;8326169;28;19932;-44
2022/12/28 17:49:54;;;;;;;;;;;22.50;38.50;;;;;;8325943;28;20412;-41
2022/12/28 17:53:56;;;;;;;;;;;22.50;38.60;;;;;;8332681;28;19931;-42
2022/12/28 17:57:56;;;;;;;;;;;22.50;38.40;;;;;;8331622;28;20362;-42
2022/12/28 18:01:56;;;;;;;;;;;22.50;38.40;;;;;;8329446;28;19964;-45
2022/12/28 18:05:57;;;;;;;;;;;22.60;38.50;;;;;;8332272;28;19926;-42
2022/12/28 18:09:57;;;;;;;;;;;22.60;38.40;;;;;;8332031;28;19917;-42
2022/12/28 18:13:58;;;;;;;;;;;22.60;39.00;;;;;;8331345;28;19947;-42
2022/12/28 18:17:59;;;;;;;;;;;22.60;38.40;;;;;;8328643;28;19924;-42
2022/12/28 18:21:59;;;;;;;;;;;22.60;38.40;;;;;;8331941;28;19913;-42
2022/12/28 18:26:04;;;;;;;;;;;22.60;38.40;;;;;;8330091;28;19929;-44
2022/12/28 18:30:05;;;;;;;;;;;22.60;38.40;;;;;;8326937;28;19917;-43
2022/12/28 18:34:06;;;;;;;;;;;22.60;38.40;;;;;;8331053;28;19927;-42
2022/12/28 18:38:06;;;;;;;;;;;22.60;38.50;;;;;;8330867;28;19975;-42
2022/12/28 18:42:07;;;;;;;;;;;22.60;38.40;;;;;;8324739;28;20012;-45
2022/12/28 18:46:07;;;;;;;;;;;22.60;38.50;;;;;;8330905;28;19925;-44
2022/12/28 18:50:08;;;;;;;;;;;22.60;38.50;;;;;;8330438;28;19924;-43
2022/12/28 18:54:08;;;;;;;;;;;22.70;38.50;;;;;;8330493;28;20428;-43
2022/12/28 18:58:09;;;;;;;;;;;22.70;38.50;;;;;;8330556;28;19917;-43
2022/12/28 19:02:10;;;;;;;;;;;22.70;38.50;;;;;;8323957;28;19923;-42
2022/12/28 19:06:10;;;;;;;;;;;22.70;38.30;;;;;;8330155;28;19926;-42
2022/12/28 19:10:11;;;;;;;;;;;22.70;38.40;;;;;;8330263;28;19923;-42
2022/12/28 19:14:12;;;;;;;;;;;22.70;38.40;;;;;;8329743;28;20377;-43
2022/12/28 19:18:13;;;;;;;;;;;22.80;38.40;;;;;;8329121;28;20385;-43
2022/12/28 19:22:13;;;;;;;;;;;22.70;38.40;;;;;;8330323;28;19921;-43
2022/12/28 19:26:14;;;;;;;;;;;22.70;38.40;;;;;;8329533;28;20011;-42
2022/12/28 19:30:14;;;;;;;;;;;22.70;38.30;;;;;;8329940;28;19921;-43
2022/12/28 19:34:15;;;;;;;;;;;22.80;38.30;;;;;;8329899;28;20039;-44
2022/12/28 19:38:15;;;;;;;;;;;22.80;38.30;;;;;;8328468;28;20370;-42
2022/12/28 19:42:16;;;;;;;;;;;22.70;38.30;;;;;;8329797;28;20316;-42
2022/12/28 19:46:29;;;;;;;;;;;22.70;38.20;;;;;;8328840;28;19925;-42
2022/12/28 19:50:30;;;;;;;;;;;22.70;38.20;;;;;;8329450;28;19971;-43
2022/12/28 19:54:30;;;;;;;;;;;22.80;38.30;;;;;;8329419;28;19919;-43
2022/12/28 19:58:31;;;;;;;;;;;22.80;38.30;;;;;;8329014;28;19921;-42
2022/12/28 20:02:32;;;;;;;;;;;22.80;38.20;;;;;;8329118;28;20452;-43
2022/12/28 20:06:32;;;;;;;;;;;22.80;38.20;;;;;;8328306;28;19932;-42
2022/12/28 20:10:33;;;;;;;;;;;22.80;38.20;;;;;;8328678;28;19917;-42
2022/12/28 20:14:33;;;;;;;;;;;22.80;38.20;;;;;;8329002;28;19983;-42
2022/12/28 20:18:34;;;;;;;;;;;22.80;38.30;;;;;;8306746;28;19986;-44
2022/12/28 20:22:38;;;;;;;;;;;22.80;38.20;;;;;;8335277;28;19924;-45
2022/12/28 20:26:38;;;;;;;;;;;22.70;38.20;;;;;;8316980;28;19926;-43
2022/12/28 20:30:39;;;;;;;;;;;22.80;38.20;;;;;;8322839;28;19917;-42
2022/12/28 20:34:39;;;;;;;;;;;22.80;38.10;;;;;;8334535;28;19924;-43
2022/12/28 20:38:40;;;;;;;;;;;22.80;38.20;;;;;;8324961;28;19917;-43
2022/12/28 20:47:03;;;;;;;;;;;22.80;38.10;;;;;;8334331;28;19932;-43
2022/12/28 20:51:03;;;;;;;;;;;22.80;38.10;;;;;;8334860;28;19921;-43
2022/12/28 20:55:04;;;;;;;;;;;22.80;38.20;;;;;;8334328;28;19924;-42
2022/12/28 20:59:04;;;;;;;;;;;22.80;38.20;;;;;;8332080;28;19924;-42
2022/12/28 21:03:05;;;;;;;;;;;22.80;38.10;;;;;;8329385;28;19949;-43
2022/12/28 21:07:05;;;;;;;;;;;22.80;38.20;;;;;;8329236;28;19929;-43
2022/12/28 21:11:06;;;;;;;;;;;22.80;38.20;;;;;;8333013;28;19921;-43
2022/12/28 21:15:06;;;;;;;;;;;22.80;38.30;;;;;;8333796;28;19917;-43
2022/12/28 21:19:08;;;;;;;;;;;22.80;38.30;;;;;;8327393;28;19917;-43
2022/12/28 21:23:08;;;;;;;;;;;22.70;38.40;;;;;;8326860;28;19921;-42
2022/12/28 21:27:09;;;;;;;;;;;22.80;38.40;;;;;;8305619;28;19934;-43
2022/12/28 21:31:10;;;;;;;;;;;22.70;38.40;;;;;;8332162;28;19944;-43
2022/12/28 21:35:10;;;;;;;;;;;22.60;38.50;;;;;;8332755;28;19917;-43
2022/12/28 21:39:11;;;;;;;;;;;22.60;38.50;;;;;;8328272;28;20007;-44
2022/12/28 21:43:11;;;;;;;;;;;22.50;38.40;;;;;;8333100;28;19913;-42
2022/12/28 21:47:11;;;;;;;;;;;22.50;38.60;;;;;;8332321;28;19964;-43
2022/12/28 21:51:31;;;;;;;;;;;22.50;38.60;;;;;;8319380;28;20008;-44
2022/12/28 21:55:42;;;;;;;;;;;22.40;38.50;;;;;;8314291;28;19984;-43
2022/12/28 21:59:42;;;;;;;;;;;22.40;38.50;;;;;;8332252;28;20004;-43
2022/12/28 22:12:34;;;;;;;;;;;22.40;38.40;;;;;;8332262;28;19928;-42
2022/12/28 22:16:34;;;;;;;;;;;22.30;38.60;;;;;;8320631;28;19921;-43
2022/12/28 22:20:36;;;;;;;;;;;22.30;38.50;;;;;;8331692;28;19917;-43
2022/12/28 22:24:36;;;;;;;;;;;22.30;38.40;;;;;;8331857;28;20380;-43
2022/12/28 22:28:37;;;;;;;;;;;22.30;38.50;;;;;;8329705;28;19964;-44
2022/12/28 22:32:37;;;;;;;;;;;22.20;38.40;;;;;;8307123;28;20013;-42
2022/12/28 22:36:38;;;;;;;;;;;22.20;38.50;;;;;;8319768;28;19917;-44
2022/12/28 22:40:38;;;;;;;;;;;22.20;38.40;;;;;;8330543;28;19940;-43
2022/12/28 22:44:38;;;;;;;;;;;22.20;38.50;;;;;;8330764;28;19917;-42
2022/12/28 22:48:39;;;;;;;;;;;22.20;38.50;;;;;;8331175;28;19928;-42
2022/12/28 22:52:40;;;;;;;;;;;22.10;38.50;;;;;;8330570;28;19964;-43
2022/12/28 22:56:40;;;;;;;;;;;22.10;38.40;;;;;;8319492;28;19940;-43
2022/12/28 23:00:40;;;;;;;;;;;22.10;38.40;;;;;;8317081;28;19917;-42
2022/12/28 23:04:41;;;;;;;;;;;22.10;38.40;;;;;;8307475;28;19918;-42
2022/12/28 23:08:42;;;;;;;;;;;22.10;38.50;;;;;;8330019;28;20087;-43
2022/12/28 23:12:42;;;;;;;;;;;22.00;38.50;;;;;;8329104;28;19963;-42
2022/12/28 23:16:43;;;;;;;;;;;21.90;38.40;;;;;;8329683;28;19921;-42
2022/12/28 23:29:21;;;;;;;;;;;21.90;38.30;;;;;;8301833;28;19932;-42
2022/12/28 23:33:22;;;;;;;;;;;21.80;38.30;;;;;;8329769;28;19921;-43
2022/12/28 23:37:22;;;;;;;;;;;21.80;38.30;;;;;;8315725;28;20290;-44
2022/12/28 23:45:42;;;;;;;;;;;21.80;38.40;;;;;;8329762;28;19968;-42
2022/12/28 23:49:42;;;;;;;;;;;21.80;38.40;;;;;;8329349;28;19917;-42
2022/12/28 23:53:43;;;;;;;;;;;21.80;38.40;;;;;;8322086;28;19948;-42
2022/12/28 23:57:44;;;;;;;;;;;21.80;38.40;;;;;;8305967;28;19917;-42
